Fillmore, Louisiana
Current Conditions -  °F | °C
As of 11:58 PM on Thursday 27 Nov 2014 (Local Time) from KBAD Reporting Station
Clear Clear  
Wind Chill: 39°   Ceiling: Unl
Heat Index: 39°   Visibility: 10mi
Dew Point: 31°   Wind: 3mph
Humidity: 74%   Direction: 130°SE
Pressure: 30.43"   Gusts: NA
Location:  32.5391°N, 93.5257°W
Report Text: KBAD 280558Z AUTO 13003KT 10SM CLR 04/00 A3043 RMK AO2 SLP308 T00381004 10094 20033 401430024 57006
Loading
Personal Weather Stations






























Interactive Weather Map New forecast layout! Learn more

10-Day Weather Forecast

Advertisements
Track Severe Weather on mobile